KHPN/HPN METAR and TAF weather

Enter ICAO airport designator
Station Type Date Time Source
KHPN METAR 2019/04/19 07:56 UTC NOAA

KHPN 190756Z 15004KT 8SM CLR 13/12 A2982 RMK AO2 SLP098 T01280117


Station Type Date Time Source
KHPN Decoded METAR 2019/04/19 07:56 UTC NOAA

WHITE PLAINS WESTCHESTER, NY, United States (KHPN) 41-04N 073-42W 121M
Apr 19, 2019 - 03:56 AM EDT / 2019.04.19 0756 UTC
Wind: from the SSE (150 degrees) at 5 MPH (4 KT):0
Visibility: 8 mile(s):0
Sky conditions: clear
Temperature: 55.0 F (12.8 C)
Dew Point: 53.1 F (11.7 C)
Relative Humidity: 93%
Pressure (altimeter): 29.82 in. Hg (1009 hPa)
ob: KHPN 190756Z 15004KT 8SM CLR 13/12 A2982 RMK AO2 SLP098 T01280117
cycle: 8

Station Type Date Time Source
KHPN TAF 2019/04/19 06:30 UTC NOAA

TAF KHPN 190528Z 1906/2006 17006KT P6SM SCT150 WS020/21045KT
FM190800 17006KT P6SM SCT012 SCT150
FM191100 17011KT P6SM OVC012
TEMPO 1914/1918 -SHRA
FM191800 17014G20KT 3SM BR OVC010 WS020/20045KT PROB30 1918/1924 -SHRA OVC007
FM200000 18017G24KT 3SM -SHRA BR OVC010 WS020/19055KT
FM200400 18014G20KT 2SM +SHRA BR OVC010 WS020/19055KT
AMD NOT SKED

Example: see airport list